Time;durP1;ratioP1;P1;durP2;ratioP2;P2;SDS_P1;SDS_P2;PMS_P1;PMS_P2;Temp;Humidity;BMP_temperature;BMP_pressure;BME280_temperature;BME280_humidity;BME280_pressure;Samples;Min_cycle;Max_cycle;Signal;HPM_P1;HPM_P2
2022/05/15 00:02:48;;;;;;;4.40;1.53;;;;;;;;;;4967182;28;20179;-85
2022/05/15 00:05:55;;;;;;;1.60;1.50;;;;;;;;;;4967303;28;20199;-86
2022/05/15 00:08:59;;;;;;;2.27;1.53;;;;;;;;;;4954896;28;20226;-85
2022/05/15 00:12:05;;;;;;;4.23;1.50;;;;;;;;;;4955916;28;20183;-85
2022/05/15 00:15:09;;;;;;;4.00;1.60;;;;;;;;;;4966961;28;20531;-86
2022/05/15 00:18:13;;;;;;;5.07;1.70;;;;;;;;;;4948443;29;20203;-85
2022/05/15 00:21:18;;;;;;;3.23;1.60;;;;;;;;;;4936157;29;20535;-84
2022/05/15 00:24:22;;;;;;;3.70;1.47;;;;;;;;;;4936794;28;20176;-85
2022/05/15 00:27:26;;;;;;;1.97;1.57;;;;;;;;;;4965947;28;20183;-85
2022/05/15 00:30:31;;;;;;;3.60;1.70;;;;;;;;;;4965694;28;20214;-85
2022/05/15 00:33:36;;;;;;;5.77;1.97;;;;;;;;;;4965385;28;20202;-85
2022/05/15 00:36:40;;;;;;;2.10;1.90;;;;;;;;;;4965076;28;20183;-85
2022/05/15 00:39:44;;;;;;;4.90;1.60;;;;;;;;;;4954940;28;20214;-85
2022/05/15 00:42:49;;;;;;;2.23;1.50;;;;;;;;;;4966013;28;20175;-84
2022/05/15 00:45:53;;;;;;;2.30;1.60;;;;;;;;;;4953999;28;20531;-85
2022/05/15 00:49:04;;;;;;;3.40;1.87;;;;;;;;;;4941493;28;20905;-85
2022/05/15 00:52:12;;;;;;;5.60;2.03;;;;;;;;;;4965782;28;20536;-85
2022/05/15 00:55:40;;;;;;;7.37;2.33;;;;;;;;;;4966048;28;20195;-85
2022/05/15 00:58:51;;;;;;;3.67;1.97;;;;;;;;;;4945987;28;20215;-85
2022/05/15 01:01:55;;;;;;;2.27;1.80;;;;;;;;;;4935224;29;20184;-86
2022/05/15 01:05:01;;;;;;;5.30;2.07;;;;;;;;;;4938513;28;20642;-85
2022/05/15 01:08:06;;;;;;;3.17;2.20;;;;;;;;;;4946433;29;20531;-85
2022/05/15 01:11:15;;;;;;;5.33;1.73;;;;;;;;;;4925191;29;20180;-86
2022/05/15 01:14:19;;;;;;;6.13;1.80;;;;;;;;;;4946660;29;20204;-85
2022/05/15 01:17:23;;;;;;;2.77;2.10;;;;;;;;;;4955501;28;20191;-85
2022/05/15 01:20:29;;;;;;;3.40;2.03;;;;;;;;;;4953816;28;20590;-85
2022/05/15 01:23:33;;;;;;;2.57;2.10;;;;;;;;;;4965097;28;20183;-84
2022/05/15 01:26:38;;;;;;;7.20;2.40;;;;;;;;;;4964037;28;20202;-85
2022/05/15 01:29:47;;;;;;;3.80;2.10;;;;;;;;;;4964917;28;20222;-85
2022/05/15 01:32:55;;;;;;;4.53;1.90;;;;;;;;;;4965350;28;20215;-85
2022/05/15 01:36:02;;;;;;;2.77;2.07;;;;;;;;;;4940700;29;20539;-86
2022/05/15 01:39:06;;;;;;;3.70;2.20;;;;;;;;;;4960011;28;20214;-86
2022/05/15 01:42:11;;;;;;;3.30;2.33;;;;;;;;;;4937129;29;20191;-85
2022/05/15 01:45:15;;;;;;;2.20;2.00;;;;;;;;;;4952499;28;20646;-85
2022/05/15 01:48:20;;;;;;;3.67;2.30;;;;;;;;;;4975331;28;20186;-85
2022/05/15 01:51:24;;;;;;;2.70;2.03;;;;;;;;;;4954362;28;20182;-86
2022/05/15 01:54:28;;;;;;;4.17;2.13;;;;;;;;;;4953449;28;20210;-85
2022/05/15 01:57:33;;;;;;;3.63;2.00;;;;;;;;;;4944903;29;20566;-85
2022/05/15 02:00:38;;;;;;;3.60;2.20;;;;;;;;;;4936835;28;20231;-84
2022/05/15 02:03:42;;;;;;;5.57;2.20;;;;;;;;;;4964693;28;20179;-85
2022/05/15 02:06:46;;;;;;;3.70;2.20;;;;;;;;;;4947237;28;20176;-86
2022/05/15 02:09:51;;;;;;;4.23;1.90;;;;;;;;;;4963944;28;20226;-85
2022/05/15 02:12:55;;;;;;;4.67;2.33;;;;;;;;;;4945341;29;20204;-84
2022/05/15 02:16:00;;;;;;;2.80;1.90;;;;;;;;;;4933166;29;20204;-84
2022/05/15 02:19:05;;;;;;;3.10;2.20;;;;;;;;;;4941840;28;20223;-85
2022/05/15 02:22:12;;;;;;;5.17;2.40;;;;;;;;;;4963520;28;20202;-85
2022/05/15 02:25:16;;;;;;;3.00;2.20;;;;;;;;;;4957367;28;20551;-85
2022/05/15 02:28:21;;;;;;;3.30;2.87;;;;;;;;;;4963452;28;20203;-84
2022/05/15 02:31:25;;;;;;;3.57;2.07;;;;;;;;;;4963985;28;20187;-85
2022/05/15 02:34:29;;;;;;;5.10;2.63;;;;;;;;;;4963366;28;20210;-85
2022/05/15 02:37:34;;;;;;;4.37;2.37;;;;;;;;;;4935173;28;20192;-85
2022/05/15 02:40:38;;;;;;;5.63;2.13;;;;;;;;;;4955003;29;20222;-84
2022/05/15 02:43:43;;;;;;;2.60;2.13;;;;;;;;;;4952636;28;20186;-85
2022/05/15 02:46:47;;;;;;;4.57;2.40;;;;;;;;;;4940872;29;20207;-84
2022/05/15 02:53:15;;;;;;;3.93;2.60;;;;;;;;;;4975576;28;20215;-85
2022/05/15 02:56:22;;;;;;;3.43;2.40;;;;;;;;;;4951970;28;20570;-85
2022/05/15 02:59:26;;;;;;;5.17;2.40;;;;;;;;;;4963103;28;20214;-85
2022/05/15 03:02:30;;;;;;;5.80;2.73;;;;;;;;;;4975247;28;20631;-86
2022/05/15 03:05:34;;;;;;;4.07;2.33;;;;;;;;;;4952384;28;20191;-86
2022/05/15 03:08:43;;;;;;;3.23;2.30;;;;;;;;;;4976838;28;20195;-86
2022/05/15 03:11:47;;;;;;;7.07;2.70;;;;;;;;;;4947967;29;20180;-85
2022/05/15 03:14:51;;;;;;;3.93;2.67;;;;;;;;;;4936962;29;20215;-87
2022/05/15 03:17:55;;;;;;;3.10;2.40;;;;;;;;;;4937543;29;20179;-85
2022/05/15 03:20:59;;;;;;;5.63;2.50;;;;;;;;;;4955256;28;20183;-85
2022/05/15 03:24:09;;;;;;;3.23;2.60;;;;;;;;;;4967599;28;20202;-85
2022/05/15 03:27:13;;;;;;;2.53;2.27;;;;;;;;;;4956196;28;20187;-86
2022/05/15 03:30:17;;;;;;;4.57;2.40;;;;;;;;;;4978870;28;20218;-85
2022/05/15 03:33:21;;;;;;;5.33;2.57;;;;;;;;;;4957232;28;20207;-86
2022/05/15 03:36:26;;;;;;;5.93;2.73;;;;;;;;;;4939208;29;20195;-86
2022/05/15 03:39:30;;;;;;;2.80;2.50;;;;;;;;;;4946443;28;20222;-85
2022/05/15 03:42:34;;;;;;;3.13;2.37;;;;;;;;;;4966640;28;20543;-85
2022/05/15 03:45:39;;;;;;;4.67;2.87;;;;;;;;;;4955513;28;20178;-84
2022/05/15 03:48:43;;;;;;;4.03;2.73;;;;;;;;;;4955028;28;20214;-85
2022/05/15 03:51:47;;;;;;;3.23;2.50;;;;;;;;;;4946802;29;20655;-85
2022/05/15 03:54:51;;;;;;;4.80;2.50;;;;;;;;;;4936334;29;20211;-84
2022/05/15 03:57:56;;;;;;;4.13;2.67;;;;;;;;;;4930610;28;20642;-84
2022/05/15 04:01:02;;;;;;;5.17;2.80;;;;;;;;;;4948668;29;20187;-86
2022/05/15 04:04:07;;;;;;;2.67;2.47;;;;;;;;;;4954866;28;20186;-84
2022/05/15 04:07:12;;;;;;;2.80;2.50;;;;;;;;;;4955331;28;20178;-85
2022/05/15 04:10:20;;;;;;;4.83;2.80;;;;;;;;;;5012397;23;20232;-85
2022/05/15 04:13:25;;;;;;;2.83;2.37;;;;;;;;;;5022560;28;20196;-84
2022/05/15 04:16:30;;;;;;;3.67;2.67;;;;;;;;;;5022274;28;20558;-85
2022/05/15 04:19:36;;;;;;;3.97;2.87;;;;;;;;;;5033019;28;20200;-85
2022/05/15 04:22:40;;;;;;;4.37;2.40;;;;;;;;;;5002645;28;20177;-84
2022/05/15 04:25:45;;;;;;;3.90;2.63;;;;;;;;;;5015372;28;20654;-85
2022/05/15 04:28:50;;;;;;;4.43;2.57;;;;;;;;;;5022797;28;20180;-84
2022/05/15 04:31:56;;;;;;;4.67;2.43;;;;;;;;;;5021299;28;20196;-85
2022/05/15 04:35:00;;;;;;;6.37;2.70;;;;;;;;;;5021001;28;20204;-86
2022/05/15 04:38:07;;;;;;;3.33;2.57;;;;;;;;;;5032895;28;20559;-85
2022/05/15 04:41:11;;;;;;;4.93;3.03;;;;;;;;;;5032004;28;20216;-86
2022/05/15 04:44:16;;;;;;;3.50;2.60;;;;;;;;;;5032622;28;20558;-85
2022/05/15 04:47:20;;;;;;;5.93;2.87;;;;;;;;;;5013705;28;20177;-84
2022/05/15 04:50:24;;;;;;;3.50;2.40;;;;;;;;;;5016063;28;20220;-84
2022/05/15 04:53:28;;;;;;;3.83;2.63;;;;;;;;;;5021115;28;20188;-84
2022/05/15 04:56:32;;;;;;;4.53;2.57;;;;;;;;;;5021134;28;20180;-84
2022/05/15 04:59:37;;;;;;;5.77;3.17;;;;;;;;;;5033501;28;20184;-85
2022/05/15 05:02:41;;;;;;;3.30;3.00;;;;;;;;;;5031955;28;20200;-84
2022/05/15 05:05:45;;;;;;;4.80;2.80;;;;;;;;;;5023581;28;20624;-85
2022/05/15 05:08:49;;;;;;;4.00;2.70;;;;;;;;;;5001430;28;20177;-84
2022/05/15 05:11:55;;;;;;;4.67;2.67;;;;;;;;;;5012051;28;20200;-86
2022/05/15 05:14:59;;;;;;;10.77;3.00;;;;;;;;;;5011841;28;20232;-84
2022/05/15 05:18:04;;;;;;;5.53;3.00;;;;;;;;;;5048655;28;20200;-84
2022/05/15 05:21:07;;;;;;;4.13;2.90;;;;;;;;;;5042429;28;20228;-84
2022/05/15 05:24:12;;;;;;;3.90;3.00;;;;;;;;;;5020201;28;20180;-84
2022/05/15 05:27:16;;;;;;;4.97;3.17;;;;;;;;;;5022901;28;20204;-84
2022/05/15 05:30:23;;;;;;;3.40;2.93;;;;;;;;;;5030311;28;20223;-84
2022/05/15 05:33:27;;;;;;;4.23;3.20;;;;;;;;;;5020499;28;20176;-84
2022/05/15 05:36:31;;;;;;;4.07;2.90;;;;;;;;;;5020151;28;20639;-84
2022/05/15 05:39:35;;;;;;;5.37;3.43;;;;;;;;;;5018363;28;20192;-85
2022/05/15 05:42:40;;;;;;;9.40;3.43;;;;;;;;;;5030787;28;20204;-84
2022/05/15 05:45:44;;;;;;;4.33;3.13;;;;;;;;;;5020093;28;20627;-85
2022/05/15 05:48:48;;;;;;;6.50;3.23;;;;;;;;;;5030689;28;20176;-84
2022/05/15 05:51:52;;;;;;;5.90;3.50;;;;;;;;;;5023019;28;20306;-84
2022/05/15 05:54:56;;;;;;;8.60;4.77;;;;;;;;;;5019511;28;20591;-84
2022/05/15 05:58:02;;;;;;;4.23;3.30;;;;;;;;;;5020281;28;20196;-84
2022/05/15 06:01:06;;;;;;;6.17;3.67;;;;;;;;;;5019579;28;20224;-85
2022/05/15 06:07:36;;;;;;;3.57;3.20;;;;;;;;;;5022373;28;20529;-85
2022/05/15 06:10:41;;;;;;;5.57;3.70;;;;;;;;;;5024482;28;20576;-84
2022/05/15 06:13:45;;;;;;;7.03;3.33;;;;;;;;;;5042075;28;20185;-84
2022/05/15 06:16:49;;;;;;;7.73;3.80;;;;;;;;;;5018694;28;20184;-84
2022/05/15 06:19:55;;;;;;;6.63;4.00;;;;;;;;;;5019672;28;20215;-84
2022/05/15 06:22:59;;;;;;;5.23;3.90;;;;;;;;;;5030192;28;20184;-84
2022/05/15 06:26:03;;;;;;;3.63;2.93;;;;;;;;;;5012713;28;20651;-84
2022/05/15 06:29:07;;;;;;;5.47;3.57;;;;;;;;;;5030284;28;20192;-84
2022/05/15 06:32:11;;;;;;;5.83;3.83;;;;;;;;;;5030360;28;20196;-84
2022/05/15 06:35:16;;;;;;;4.50;3.67;;;;;;;;;;5018725;28;20212;-87
2022/05/15 06:38:20;;;;;;;6.87;3.20;;;;;;;;;;5019627;28;20176;-86
2022/05/15 06:41:24;;;;;;;5.77;3.10;;;;;;;;;;5042117;28;20666;-86
2022/05/15 06:44:28;;;;;;;5.30;3.60;;;;;;;;;;5022355;28;20188;-87
2022/05/15 06:47:33;;;;;;;6.03;3.27;;;;;;;;;;5033809;28;20203;-85
2022/05/15 06:50:37;;;;;;;3.73;2.57;;;;;;;;;;5022446;28;20551;-86
2022/05/15 06:53:46;;;;;;;4.33;2.80;;;;;;;;;;5022446;28;20181;-86
2022/05/15 07:00:21;;;;;;;5.40;3.40;;;;;;;;;;5033780;28;20220;-86
2022/05/15 07:03:27;;;;;;;5.50;3.50;;;;;;;;;;5044732;28;20213;-85
2022/05/15 07:06:31;;;;;;;3.97;2.90;;;;;;;;;;5037404;28;20196;-86
2022/05/15 07:09:36;;;;;;;6.43;3.30;;;;;;;;;;5034517;28;20543;-86
2022/05/15 07:12:40;;;;;;;3.87;3.07;;;;;;;;;;5022132;28;20192;-86
2022/05/15 07:15:44;;;;;;;6.67;3.20;;;;;;;;;;5032739;28;20207;-86
2022/05/15 07:18:49;;;;;;;5.57;3.00;;;;;;;;;;5022463;28;20180;-86
2022/05/15 07:21:53;;;;;;;4.97;2.70;;;;;;;;;;5032691;28;20196;-86
2022/05/15 07:24:57;;;;;;;6.33;3.87;;;;;;;;;;5021510;28;20184;-86
2022/05/15 07:28:01;;;;;;;3.53;2.80;;;;;;;;;;5021714;28;20192;-86
2022/05/15 07:31:05;;;;;;;5.87;2.77;;;;;;;;;;5021448;28;20212;-86
2022/05/15 07:34:10;;;;;;;7.30;2.60;;;;;;;;;;5021200;28;20188;-86
2022/05/15 07:37:16;;;;;;;4.67;2.50;;;;;;;;;;5013089;28;20181;-86
2022/05/15 07:40:20;;;;;;;5.43;2.83;;;;;;;;;;5028066;28;20211;-86
2022/05/15 07:43:25;;;;;;;4.90;2.60;;;;;;;;;;5001999;28;20631;-86
2022/05/15 07:46:29;;;;;;;5.70;2.27;;;;;;;;;;5013070;28;20181;-86
2022/05/15 07:49:33;;;;;;;6.03;2.50;;;;;;;;;;5021215;28;20188;-86
2022/05/15 07:52:38;;;;;;;3.40;2.53;;;;;;;;;;5043428;28;20188;-86
2022/05/15 07:55:42;;;;;;;8.53;2.50;;;;;;;;;;5043742;28;20208;-86
2022/05/15 07:58:47;;;;;;;4.03;2.67;;;;;;;;;;5032462;28;20176;-86
2022/05/15 08:01:54;;;;;;;5.63;2.83;;;;;;;;;;5020214;28;20220;-86
2022/05/15 08:08:21;;;;;;;2.47;2.20;;;;;;;;;;5024164;28;20181;-85
2022/05/15 08:11:28;;;;;;;4.90;2.53;;;;;;;;;;5026801;28;20225;-85
2022/05/15 08:14:32;;;;;;;6.73;2.40;;;;;;;;;;5020560;28;20176;-86
2022/05/15 08:17:36;;;;;;;4.13;2.10;;;;;;;;;;5042659;28;20535;-85
2022/05/15 08:24:04;;;;;;;6.40;2.40;;;;;;;;;;5034813;28;20185;-86
2022/05/15 08:27:11;;;;;;;3.33;1.95;;;;;;;;;;5019549;28;20184;-87
2022/05/15 08:30:17;;;;;;;10.88;2.10;;;;;;;;;;5041398;28;20571;-86
2022/05/15 08:33:21;;;;;;;3.78;1.95;;;;;;;;;;5031108;28;20194;-86
2022/05/15 08:36:25;;;;;;;5.38;2.20;;;;;;;;;;5042935;28;20224;-85
2022/05/15 08:39:30;;;;;;;3.88;1.85;;;;;;;;;;5019741;28;20204;-92
2022/05/15 08:42:50;;;;;;;5.22;1.90;;;;;;;;;;5019905;28;20196;-87
2022/05/15 08:46:13;;;;;;;4.07;1.98;;;;;;;;;;5030889;28;20659;-86
2022/05/15 08:49:24;;;;;;;5.10;2.05;;;;;;;;;;5023150;28;20195;-86
2022/05/15 08:52:54;;;;;;;3.15;2.08;;;;;;;;;;5022822;28;20177;-86
2022/05/15 08:56:00;;;;;;;3.60;1.67;;;;;;;;;;5019193;28;20214;-86
2022/05/15 08:59:11;;;;;;;2.50;1.73;;;;;;;;;;5030986;28;20198;-86
2022/05/15 09:02:15;;;;;;;3.65;1.60;;;;;;;;;;5019783;28;20187;-86
2022/05/15 09:05:19;;;;;;;4.70;1.70;;;;;;;;;;5029488;28;20207;-86
2022/05/15 09:08:39;;;;;;;3.45;1.60;;;;;;;;;;5041927;28;20659;-86
2022/05/15 09:11:52;;;;;;;3.83;1.60;;;;;;;;;;5030049;28;20227;-86
2022/05/15 09:15:11;;;;;;;4.35;1.75;;;;;;;;;;5002867;28;20224;-86
2022/05/15 09:18:18;;;;;;;4.75;1.80;;;;;;;;;;5030299;28;20189;-86
2022/05/15 09:21:22;;;;;;;2.85;1.50;;;;;;;;;;4999312;28;20221;-86
2022/05/15 09:24:37;;;;;;;3.17;1.58;;;;;;;;;;5011063;28;20196;-86
2022/05/15 09:28:03;;;;;;;2.55;1.70;;;;;;;;;;5018815;28;20196;-86
2022/05/15 09:31:26;;;;;;;3.88;1.50;;;;;;;;;;5041293;28;20561;-86
2022/05/15 09:34:33;;;;;;;4.03;1.60;;;;;;;;;;5018803;28;20529;-87
2022/05/15 09:44:38;;;;;;;4.85;1.25;;;;;;;;;;5033736;28;20181;-86
2022/05/15 09:47:50;;;;;;;2.20;1.20;;;;;;;;;;5029910;28;20184;-86
2022/05/15 09:51:00;;;;;;;3.65;1.10;;;;;;;;;;5034384;28;20228;-86
2022/05/15 09:54:04;;;;;;;2.35;1.15;;;;;;;;;;5018416;28;20193;-86
2022/05/15 09:57:14;;;;;;;7.10;1.63;;;;;;;;;;5017843;28;20216;-85
2022/05/15 10:00:21;;;;;;;8.00;1.45;;;;;;;;;;5040555;28;20225;-86
2022/05/15 10:03:26;;;;;;;3.15;1.05;;;;;;;;;;5017943;28;20200;-88
2022/05/15 10:06:35;;;;;;;5.22;1.30;;;;;;;;;;5020739;28;20189;-87
2022/05/15 10:09:41;;;;;;;2.55;1.13;;;;;;;;;;5037870;28;20212;-87
2022/05/15 10:12:50;;;;;;;5.05;1.30;;;;;;;;;;5028878;23;20229;-87
2022/05/15 10:15:57;;;;;;;1.98;1.33;;;;;;;;;;5001417;28;20218;-87
2022/05/15 10:19:14;;;;;;;2.95;1.10;;;;;;;;;;4980134;28;20209;-88
2022/05/15 10:22:25;;;;;;;3.65;1.45;;;;;;;;;;4967450;28;20692;-87
2022/05/15 10:25:35;;;;;;;6.95;1.42;;;;;;;;;;4994789;28;20535;-86
2022/05/15 10:29:15;;;;;;;2.17;1.20;;;;;;;;;;4976004;28;20198;-87
2022/05/15 10:32:35;;;;;;;3.13;1.17;;;;;;;;;;5004927;28;20221;-87
2022/05/15 10:35:43;;;;;;;3.35;1.10;;;;;;;;;;4979081;28;20217;-87
2022/05/15 10:39:09;;;;;;;2.80;1.35;;;;;;;;;;4982760;28;20186;-87
2022/05/15 10:42:43;;;;;;;2.70;1.35;;;;;;;;;;5000695;28;20218;-87
2022/05/15 10:46:05;;;;;;;1.38;1.02;;;;;;;;;;5004558;28;20182;-88
2022/05/15 10:49:23;;;;;;;2.08;1.00;;;;;;;;;;5004354;28;20637;-87
2022/05/15 10:53:00;;;;;;;3.33;1.20;;;;;;;;;;4964015;28;20218;-87
2022/05/15 11:00:05;;;;;;;4.40;1.10;;;;;;;;;;5003248;28;20190;-88
2022/05/15 11:03:48;;;;;;;3.78;0.90;;;;;;;;;;4993481;28;20217;-89
2022/05/15 11:07:35;;;;;;;1.88;0.98;;;;;;;;;;4979462;28;20195;-88
2022/05/15 11:10:48;;;;;;;4.15;1.20;;;;;;;;;;4972743;28;20201;-89
2022/05/15 11:14:00;;;;;;;2.50;1.30;;;;;;;;;;4978470;28;20190;-88
2022/05/15 11:17:29;;;;;;;4.13;0.98;;;;;;;;;;4979261;28;20217;-89
2022/05/15 11:20:40;;;;;;;2.40;1.20;;;;;;;;;;4992710;28;20189;-88
2022/05/15 11:24:01;;;;;;;2.35;1.10;;;;;;;;;;4982014;28;20201;-88
2022/05/15 11:27:27;;;;;;;2.15;1.15;;;;;;;;;;4982573;28;20185;-88
2022/05/15 11:30:37;;;;;;;2.97;1.17;;;;;;;;;;4987788;28;20186;-87
2022/05/15 11:33:44;;;;;;;1.67;1.10;;;;;;;;;;5004272;28;20198;-87
2022/05/15 11:36:49;;;;;;;3.10;1.10;;;;;;;;;;4985390;28;20207;-88
2022/05/15 11:39:59;;;;;;;2.38;1.20;;;;;;;;;;4976170;28;20198;-88
2022/05/15 11:43:31;;;;;;;3.05;1.10;;;;;;;;;;4992480;28;20292;-88
2022/05/15 11:47:15;;;;;;;4.60;1.30;;;;;;;;;;4994762;28;20541;-88
2022/05/15 11:50:30;;;;;;;1.83;1.20;;;;;;;;;;4973055;28;20191;-85
2022/05/15 11:53:47;;;;;;;3.05;1.20;;;;;;;;;;4999202;28;20190;-86
2022/05/15 11:56:53;;;;;;;2.88;1.00;;;;;;;;;;4986216;28;20680;-85
2022/05/15 11:59:59;;;;;;;2.92;1.40;;;;;;;;;;4981649;28;20186;-86
2022/05/15 12:03:27;;;;;;;2.83;1.05;;;;;;;;;;4992273;28;20565;-85
2022/05/15 12:07:08;;;;;;;1.48;1.13;;;;;;;;;;5003447;28;20186;-88
2022/05/15 12:10:21;;;;;;;1.80;1.13;;;;;;;;;;4980819;28;20189;-86
2022/05/15 12:13:39;;;;;;;2.42;1.10;;;;;;;;;;4973195;28;20214;-86
2022/05/15 12:16:57;;;;;;;1.50;0.93;;;;;;;;;;5002222;28;20209;-84
2022/05/15 12:20:09;;;;;;;3.22;1.15;;;;;;;;;;4980118;28;20197;-85
2022/05/15 12:23:16;;;;;;;1.90;1.00;;;;;;;;;;5003384;28;20218;-85
2022/05/15 12:26:58;;;;;;;3.03;1.08;;;;;;;;;;4992467;28;20175;-85
2022/05/15 12:30:06;;;;;;;3.78;1.30;;;;;;;;;;5003289;28;20202;-85
2022/05/15 12:33:11;;;;;;;2.97;2.03;;;;;;;;;;5003077;28;20688;-86
2022/05/15 12:36:20;;;;;;;2.08;1.08;;;;;;;;;;5003087;28;20213;-85
2022/05/15 12:39:27;;;;;;;2.95;2.20;;;;;;;;;;5002497;28;20182;-85
2022/05/15 12:42:40;;;;;;;2.85;1.20;;;;;;;;;;5003068;28;20218;-85
2022/05/15 12:45:44;;;;;;;2.60;1.10;;;;;;;;;;4992206;28;20182;-85
2022/05/15 12:48:48;;;;;;;1.75;1.00;;;;;;;;;;5003266;28;20509;-86
2022/05/15 12:51:52;;;;;;;5.47;1.40;;;;;;;;;;5002878;28;20551;-86
2022/05/15 12:55:08;;;;;;;2.33;0.95;;;;;;;;;;4992007;28;20174;-85
2022/05/15 12:58:12;;;;;;;3.78;1.00;;;;;;;;;;4980753;28;20175;-86
2022/05/15 13:01:17;;;;;;;3.92;1.10;;;;;;;;;;4980344;28;20181;-85
2022/05/15 13:04:25;;;;;;;2.75;1.20;;;;;;;;;;5002824;28;20182;-85
2022/05/15 13:07:37;;;;;;;3.40;1.13;;;;;;;;;;5002593;28;20174;-86
2022/05/15 13:10:51;;;;;;;2.92;1.10;;;;;;;;;;4980417;28;20181;-85
2022/05/15 13:13:58;;;;;;;1.40;1.00;;;;;;;;;;4980369;28;20637;-86
2022/05/15 13:17:04;;;;;;;2.97;1.17;;;;;;;;;;5014475;28;20214;-86
2022/05/15 13:20:15;;;;;;;2.65;1.02;;;;;;;;;;4980390;28;20174;-85
2022/05/15 13:23:19;;;;;;;3.05;1.15;;;;;;;;;;5002471;28;20217;-86
2022/05/15 13:26:34;;;;;;;3.65;1.00;;;;;;;;;;5002744;28;20178;-86
2022/05/15 13:29:39;;;;;;;2.05;1.10;;;;;;;;;;4980014;28;20178;-86
2022/05/15 13:32:44;;;;;;;7.22;1.48;;;;;;;;;;5002918;28;20214;-85
2022/05/15 13:35:54;;;;;;;1.80;0.95;;;;;;;;;;4991488;28;20182;-86
2022/05/15 13:45:57;;;;;;;1.02;0.75;;;;;;;;;;5001969;28;20522;-86
2022/05/15 13:49:02;;;;;;;1.33;0.95;;;;;;;;;;4990936;28;20178;-85
2022/05/15 13:52:26;;;;;;;2.55;1.08;;;;;;;;;;4979432;28;20221;-85
2022/05/15 13:55:39;;;;;;;1.80;1.00;;;;;;;;;;4990698;28;20174;-86
2022/05/15 13:58:48;;;;;;;2.67;0.98;;;;;;;;;;4979987;28;20528;-85
2022/05/15 14:02:32;;;;;;;2.55;1.20;;;;;;;;;;4991140;28;20218;-85
2022/05/15 14:05:40;;;;;;;2.60;1.10;;;;;;;;;;5002461;28;20296;-84
2022/05/15 14:08:59;;;;;;;3.45;1.20;;;;;;;;;;5003640;28;20193;-85
2022/05/15 14:12:04;;;;;;;2.92;1.13;;;;;;;;;;4981179;28;20229;-85
2022/05/15 14:15:35;;;;;;;3.28;1.30;;;;;;;;;;5003785;28;20178;-85
2022/05/15 14:18:40;;;;;;;3.50;1.15;;;;;;;;;;4992961;28;20182;-85
2022/05/15 14:22:00;;;;;;;2.95;0.98;;;;;;;;;;4981544;28;20217;-85
2022/05/15 14:25:08;;;;;;;5.88;1.40;;;;;;;;;;5002687;28;20632;-85
2022/05/15 14:28:13;;;;;;;4.55;1.13;;;;;;;;;;4980679;28;20206;-85
2022/05/15 14:31:24;;;;;;;3.45;1.02;;;;;;;;;;5001570;28;20205;-85
2022/05/15 14:34:29;;;;;;;1.70;0.73;;;;;;;;;;4979807;28;20513;-85
2022/05/15 14:37:34;;;;;;;1.20;0.93;;;;;;;;;;5001800;28;20194;-85
2022/05/15 14:40:38;;;;;;;3.42;1.20;;;;;;;;;;5001669;28;20202;-85
2022/05/15 14:43:42;;;;;;;5.82;1.20;;;;;;;;;;4979503;28;20174;-85
2022/05/15 14:46:46;;;;;;;1.80;1.02;;;;;;;;;;4990574;28;20221;-85
2022/05/15 14:49:53;;;;;;;1.40;1.00;;;;;;;;;;4990747;28;20198;-85
2022/05/15 14:53:00;;;;;;;2.67;1.23;;;;;;;;;;4979545;28;20218;-85
2022/05/15 14:56:09;;;;;;;2.63;1.10;;;;;;;;;;5002250;28;20625;-85
2022/05/15 14:59:17;;;;;;;1.98;1.10;;;;;;;;;;5003763;28;20194;-85
2022/05/15 15:02:24;;;;;;;5.28;1.15;;;;;;;;;;5003082;28;20571;-85
2022/05/15 15:05:44;;;;;;;1.00;0.88;;;;;;;;;;4989707;28;20194;-85
2022/05/15 15:08:48;;;;;;;2.03;1.17;;;;;;;;;;4990436;28;20190;-85
2022/05/15 15:11:54;;;;;;;3.28;1.48;;;;;;;;;;4964395;28;20226;-87
2022/05/15 15:14:58;;;;;;;2.75;1.08;;;;;;;;;;4992147;28;20201;-86
2022/05/15 15:18:03;;;;;;;2.10;1.45;;;;;;;;;;4966131;28;20174;-85
2022/05/15 15:21:07;;;;;;;6.35;1.50;;;;;;;;;;4981873;28;20166;-86
2022/05/15 15:24:13;;;;;;;1.20;0.93;;;;;;;;;;4966386;28;20179;-86
2022/05/15 15:27:17;;;;;;;3.20;1.10;;;;;;;;;;4964712;28;20202;-86
2022/05/15 15:30:22;;;;;;;3.15;0.98;;;;;;;;;;4974638;28;20194;-86
2022/05/15 15:33:26;;;;;;;2.22;1.27;;;;;;;;;;4974758;28;20178;-86
2022/05/15 15:36:31;;;;;;;2.10;1.20;;;;;;;;;;4978755;28;20629;-85
2022/05/15 15:39:36;;;;;;;1.70;1.10;;;;;;;;;;4991200;28;20197;-86
2022/05/15 15:42:41;;;;;;;2.72;1.10;;;;;;;;;;4985921;28;20216;-86
2022/05/15 15:45:45;;;;;;;3.33;1.10;;;;;;;;;;4984470;28;20192;-87
2022/05/15 15:48:50;;;;;;;3.25;1.05;;;;;;;;;;4975255;28;20219;-87
2022/05/15 15:51:55;;;;;;;2.10;1.23;;;;;;;;;;4993634;28;20216;-87
2022/05/15 15:54:58;;;;;;;1.83;1.10;;;;;;;;;;4982655;28;20184;-87
2022/05/15 15:58:04;;;;;;;2.80;1.25;;;;;;;;;;4982267;28;20186;-86
2022/05/15 16:01:08;;;;;;;2.33;1.33;;;;;;;;;;4962261;28;20181;-87
2022/05/15 16:04:12;;;;;;;1.40;1.10;;;;;;;;;;4986543;28;20648;-86
2022/05/15 16:07:17;;;;;;;1.52;1.15;;;;;;;;;;5003149;28;20209;-87
2022/05/15 16:10:21;;;;;;;7.20;1.23;;;;;;;;;;4981423;28;20193;-86
2022/05/15 16:13:25;;;;;;;4.70;1.35;;;;;;;;;;4993512;28;20210;-85
2022/05/15 16:16:29;;;;;;;6.97;1.50;;;;;;;;;;4995094;28;20177;-85
2022/05/15 16:19:34;;;;;;;1.58;1.20;;;;;;;;;;4984380;28;20184;-85
2022/05/15 16:22:40;;;;;;;3.35;1.40;;;;;;;;;;4980128;28;20218;-84
2022/05/15 16:25:46;;;;;;;2.80;1.50;;;;;;;;;;4983275;28;20174;-84
2022/05/15 16:28:50;;;;;;;1.70;1.30;;;;;;;;;;4989995;28;20208;-85
2022/05/15 16:31:55;;;;;;;3.30;1.40;;;;;;;;;;5012805;28;20217;-84
2022/05/15 16:34:59;;;;;;;3.10;1.40;;;;;;;;;;4990847;28;20178;-84
2022/05/15 16:38:04;;;;;;;5.30;1.67;;;;;;;;;;4991832;28;20196;-84
2022/05/15 16:41:09;;;;;;;2.40;1.43;;;;;;;;;;4990720;28;20189;-84
2022/05/15 16:44:13;;;;;;;2.83;1.40;;;;;;;;;;4997290;28;20200;-84
2022/05/15 16:47:18;;;;;;;5.47;1.60;;;;;;;;;;5002250;28;20217;-84
2022/05/15 16:50:23;;;;;;;3.77;1.33;;;;;;;;;;4989364;28;20196;-84
2022/05/15 16:53:27;;;;;;;3.33;1.37;;;;;;;;;;4998389;28;20185;-84
2022/05/15 16:56:31;;;;;;;1.80;1.47;;;;;;;;;;4986324;28;20199;-84
2022/05/15 16:59:36;;;;;;;3.07;1.40;;;;;;;;;;5009286;28;20195;-84
2022/05/15 17:02:42;;;;;;;4.00;1.47;;;;;;;;;;4984770;28;20220;-84
2022/05/15 17:05:46;;;;;;;2.70;1.53;;;;;;;;;;4988338;28;20187;-85
2022/05/15 17:08:51;;;;;;;2.37;1.43;;;;;;;;;;4987334;28;20212;-85
2022/05/15 17:11:55;;;;;;;3.63;1.50;;;;;;;;;;4975825;28;20225;-85
2022/05/15 17:15:00;;;;;;;4.90;1.50;;;;;;;;;;4979537;28;20191;-85
2022/05/15 17:18:06;;;;;;;3.37;1.43;;;;;;;;;;4994540;28;20189;-84
2022/05/15 17:21:10;;;;;;;2.67;1.40;;;;;;;;;;5004733;28;20656;-85
2022/05/15 17:24:27;;;;;;;2.97;1.40;;;;;;;;;;5003613;28;20205;-85
2022/05/15 17:27:31;;;;;;;4.93;1.57;;;;;;;;;;4982838;28;20218;-84
2022/05/15 17:34:12;;;;;;;3.13;1.70;;;;;;;;;;5000277;28;20191;-84
2022/05/15 17:37:16;;;;;;;1.63;1.40;;;;;;;;;;4995079;28;20194;-84
2022/05/15 17:40:25;;;;;;;2.00;1.63;;;;;;;;;;4981942;28;20194;-85
2022/05/15 17:43:29;;;;;;;5.50;1.50;;;;;;;;;;4987827;28;20186;-84
2022/05/15 17:46:35;;;;;;;3.10;1.60;;;;;;;;;;4979028;28;20178;-84
2022/05/15 17:49:40;;;;;;;1.47;1.17;;;;;;;;;;4978324;28;20184;-84
2022/05/15 17:52:44;;;;;;;4.37;1.77;;;;;;;;;;4987665;28;20220;-84
2022/05/15 17:55:50;;;;;;;10.07;1.93;;;;;;;;;;4986099;28;20189;-84
2022/05/15 17:58:55;;;;;;;5.43;1.80;;;;;;;;;;4985868;28;20178;-84
2022/05/15 18:01:59;;;;;;;3.43;1.53;;;;;;;;;;4977913;28;20212;-84
2022/05/15 18:05:04;;;;;;;2.47;1.67;;;;;;;;;;4996501;28;20193;-84
2022/05/15 18:08:09;;;;;;;2.60;1.67;;;;;;;;;;4997884;28;20213;-84
2022/05/15 18:11:13;;;;;;;4.07;1.50;;;;;;;;;;4996877;28;20549;-84
2022/05/15 18:14:17;;;;;;;6.17;2.10;;;;;;;;;;4987824;28;20637;-84
2022/05/15 18:17:22;;;;;;;1.83;1.30;;;;;;;;;;4999265;28;20177;-84
2022/05/15 18:20:28;;;;;;;1.63;1.40;;;;;;;;;;5004763;28;20186;-84
2022/05/15 18:23:33;;;;;;;5.23;1.87;;;;;;;;;;5012533;28;20182;-85
2022/05/15 18:26:38;;;;;;;3.43;1.77;;;;;;;;;;5001382;28;20178;-84
2022/05/15 18:29:42;;;;;;;3.03;1.80;;;;;;;;;;4988243;28;20201;-85
2022/05/15 18:32:46;;;;;;;3.77;1.90;;;;;;;;;;4999435;28;20217;-84
2022/05/15 21:11:46;;;;;;;4.43;2.60;;;;;;;;;;5017747;28;20577;-84
2022/05/15 21:14:50;;;;;;;2.73;2.30;;;;;;;;;;4993334;28;20529;-83
2022/05/15 21:17:54;;;;;;;3.40;2.70;;;;;;;;;;5004122;28;20205;-84
2022/05/15 21:20:58;;;;;;;2.97;2.67;;;;;;;;;;4992951;28;20201;-83
2022/05/15 21:24:03;;;;;;;4.83;3.10;;;;;;;;;;4973310;28;20198;-84
2022/05/15 21:27:07;;;;;;;2.77;2.40;;;;;;;;;;4979418;28;20197;-84
2022/05/15 21:30:11;;;;;;;4.13;2.90;;;;;;;;;;4981177;28;20193;-84
2022/05/15 21:33:15;;;;;;;5.00;2.87;;;;;;;;;;5003630;28;20217;-83
2022/05/15 21:36:19;;;;;;;4.13;2.57;;;;;;;;;;4980457;28;20185;-84
2022/05/15 21:46:09;;;;;;;5.53;2.60;;;;;;;;;;4987338;28;20549;-84
2022/05/15 21:49:15;;;;;;;4.33;2.70;;;;;;;;;;4980595;28;20185;-84
2022/05/15 21:52:19;;;;;;;6.50;2.57;;;;;;;;;;4980652;28;20221;-84
2022/05/15 21:55:24;;;;;;;8.47;3.17;;;;;;;;;;4983968;28;20171;-84
2022/05/15 21:58:28;;;;;;;5.97;2.60;;;;;;;;;;4975164;28;20538;-84
2022/05/15 22:01:33;;;;;;;4.93;2.40;;;;;;;;;;5002640;28;20221;-83
2022/05/15 22:04:38;;;;;;;6.83;2.80;;;;;;;;;;4981040;28;20197;-84
2022/05/15 22:07:42;;;;;;;6.67;2.40;;;;;;;;;;4977988;28;20197;-84